Queen Elizabeth — ZCEF2 — position and weather

sailwx.info

Track history (hours):
 
Tides and Currents Weather Stations Pressure Air Temp Water Temp Dewpoint Dewpoint Depression Visibility Wind Speed Wind Dir Waves Ship Positions

Queen Elizabeth

Last reported at 2018-Jul-22 03:00 UTC. Time now 2018-Jul-22 03:20 UTC.
Position N 54°48' W 005°16'.

Length 294 m; draft 8 m.

Type: Passenger vessel. MMSI: 310625000.

Date/timePositionNaut miles runAvg speedWind from/ knotsBaromVisibWave heightAir tempDewpointWater temp
2018-Jul-22 03:00N 54°48' W 005°16'5 9.2
2018-Jul-22 02:30N 54°52' W 005°20'5 9.1
2018-Jul-22 02:01N 54°56' W 005°24'4 8.7
2018-Jul-22 01:30N 54°60' W 005°28'4 8.4
2018-Jul-22 01:00N 55°04' W 005°32'4 8.8
2018-Jul-22 00:30N 55°08' W 005°34'36 9.9
2018-Jul-21 20:54N 55°37' W 004°60'410.0
2018-Jul-21 20:29N 55°41' W 004°59'612.6
2018-Jul-21 20:00N 55°47' W 004°58'613.0
2018-Jul-21 19:31N 55°54' W 004°56'612.1
2018-Jul-21 19:00N 55°58' W 004°48'2 3.1
2018-Jul-21 18:29N 55°57' W 004°46'0 0.0
2018-Jul-21 17:59N 55°57' W 004°46'0 0.0
2018-Jul-21 17:29N 55°57' W 004°46'0 0.0
2018-Jul-21 16:59N 55°57' W 004°46'0 0.0
2018-Jul-21 16:29N 55°57' W 004°46'0 0.0
2018-Jul-21 15:59N 55°57' W 004°46'0 0.0
2018-Jul-21 15:29N 55°57' W 004°46'0 0.0
2018-Jul-21 14:59N 55°57' W 004°46'0 0.0
2018-Jul-21 14:29N 55°57' W 004°46'0 0.0
2018-Jul-21 13:29N 55°57' W 004°46'0 0.0
2018-Jul-21 12:56N 55°57' W 004°46'0 0.0
2018-Jul-21 12:29N 55°57' W 004°46'0 0.0
2018-Jul-21 11:59N 55°57' W 004°46'0 0.0
2018-Jul-21 11:29N 55°57' W 004°46'0 0.0
2018-Jul-21 10:59N 55°57' W 004°46'0 0.0
2018-Jul-21 10:29N 55°57' W 004°46'0 0.0
2018-Jul-21 09:59N 55°57' W 004°46'0 0.0
2018-Jul-21 09:29N 55°57' W 004°46'0 0.0
2018-Jul-21 08:59N 55°57' W 004°46'0 0.0
2018-Jul-21 08:26N 55°57' W 004°46'0 0.0
2018-Jul-21 07:59N 55°57' W 004°46'0 0.0
2018-Jul-21 07:29N 55°57' W 004°46'0 0.0
2018-Jul-21 06:59N 55°57' W 004°46'0 0.4
2018-Jul-21 06:30N 55°58' W 004°46'2 4.0
2018-Jul-21 06:00N 55°58' W 004°49'611.2
2018-Jul-21 05:30N 55°54' W 004°56'816.9
2018-Jul-21 05:00N 55°45' W 004°58'5 9.3
2018-Jul-21 04:30N 55°41' W 004°59'815.2
2018-Jul-21 04:00N 55°33' W 004°60'915.2
2018-Jul-21 03:23N 55°24' W 005°02'715.8
2018-Jul-21 02:57N 55°20' W 005°11'916.1
2018-Jul-21 02:24N 55°15' W 005°25'717.2
2018-Jul-21 02:00N 55°13' W 005°36'817.3
2018-Jul-21 01:30N 55°11' W 005°51'917.6
2018-Jul-21 01:00N 55°17' W 006°02'816.6
2018-Jul-21 00:30N 55°22' W 006°13'918.0
2018-Jul-21 00:00N 55°24' W 006°29'918.1
2018-Jul-20 23:31N 55°26' W 006°44'917.5
2018-Jul-20 23:01N 55°28' W 006°59'8483.1
2018-Jul-20 23:00N 55°24' W 007°12'610.1 340 / 181014.510.8 14.010.217.0
2018-Jul-20 22:23N 55°29' W 007°18'1817.6
2018-Jul-20 21:20N 55°25' W 007°50'917.8
2018-Jul-20 20:50N 55°23' W 008°06'2716.4
2018-Jul-20 19:10N 55°06' W 008°43'317.5
2018-Jul-20 19:00N 55°03' W 008°45'1217.6
2018-Jul-20 18:19N 54°52' W 008°54'617.6
2018-Jul-20 17:59N 54°47' W 008°58'917.0
2018-Jul-20 17:26N 54°38' W 009°00'817.7
2018-Jul-20 17:00N 54°35' W 008°48'1017.0
2018-Jul-20 16:24N 54°35' W 008°30'3 8.1
2018-Jul-20 15:59N 54°38' W 008°26'0 0.0
2018-Jul-20 09:34N 54°38' W 008°26'0 0.0
2018-Jul-20 09:10N 54°38' W 008°26'0 0.0
2018-Jul-20 08:52N 54°38' W 008°26'0 0.0
2018-Jul-20 06:30N 54°38' W 008°26'1 1.9
2018-Jul-20 05:47N 54°36' W 008°27'3 9.5
2018-Jul-20 05:26N 54°35' W 008°32'510.6
2018-Jul-20 05:00N 54°34' W 008°40'510.3
2018-Jul-20 04:31N 54°35' W 008°48'12 9.2
2018-Jul-20 03:14N 54°44' W 009°01'311.3
2018-Jul-20 03:01N 54°46' W 009°00'3211.6
2018-Jul-20 00:12N 55°18' W 008°45'511.9
2018-Jul-19 23:48N 55°22' W 008°41'412.4
2018-Jul-19 23:27N 55°26' W 008°37'612.5
2018-Jul-19 22:59N 55°30' W 008°32'1312.0
2018-Jul-19 21:52N 55°42' W 008°20'511.1
2018-Jul-19 21:24N 55°47' W 008°16'7211.3
2018-Jul-19 15:00N 56°48' W 007°06'11111.2 200 / 241016.610.8 15.0 9.215.0
2018-Jul-19 05:08N 58°27' W 005°32'211.6
2018-Jul-19 05:00N 58°28' W 005°30'612.0
2018-Jul-19 04:30N 58°33' W 005°23'2113.7
2018-Jul-19 03:00N 58°42' W 004°48'3310.6 1018.010.8 13.0 9.115.0
2018-Jul-18 23:55N 58°44' W 003°45'511.7
2018-Jul-18 23:30N 58°44' W 003°36'612.0
2018-Jul-18 23:00N 58°44' W 003°25'20613009.2
2018-Jul-18 23:00N 58°42' E 003°12'198409.2 190 / 101019.610.8 13.0 9.112.0
2018-Jul-18 22:30N 58°44' W 003°09'816.9
2018-Jul-18 22:00N 58°39' W 002°56'917.7
2018-Jul-18 21:30N 58°31' W 002°47'60 2.9
2018-Jul-18 00:56N 57°43' W 001°39'818.2
2018-Jul-18 00:30N 57°36' W 001°34'917.3
2018-Jul-18 00:00N 57°27' W 001°33'917.6
2018-Jul-17 23:30N 57°18' W 001°34'918.1
2018-Jul-17 23:00N 57°09' W 001°35'151074.3
2018-Jul-17 23:00N 56°54' W 001°36'613.0 340 / 121013.710.8 14.012.215.0
2018-Jul-17 22:30N 57°00' W 001°37'1018.3
2018-Jul-17 21:58N 56°52' W 001°45'2219.1
2018-Jul-17 20:50N 56°32' W 002°02'718.7
2018-Jul-17 20:29N 56°26' W 002°08'918.2
2018-Jul-17 20:00N 56°20' W 002°18'918.4
2018-Jul-17 19:30N 56°14' W 002°31'918.6
2018-Jul-17 19:00N 56°09' W 002°45'816.9
2018-Jul-17 18:30N 56°04' W 002°57'611.4
2018-Jul-17 18:00N 56°01' W 003°06'2 0.2
2018-Jul-17 06:25N 56°01' W 003°09'0 0.0
2018-Jul-17 05:57N 56°01' W 003°09'1 2.8
2018-Jul-17 05:30N 56°01' W 003°07'611.7
2018-Jul-17 05:00N 56°04' W 002°59'5 9.1
2018-Jul-17 04:30N 56°06' W 002°51'611.4
2018-Jul-17 04:00N 56°07' W 002°41'612.5
2018-Jul-17 03:30N 56°08' W 002°30'612.8
2018-Jul-17 03:00N 56°08' W 002°19'611.4
2018-Jul-17 02:30N 56°07' W 002°08'611.6
2018-Jul-17 02:00N 56°03' W 002°01'611.6
2018-Jul-17 01:30N 55°59' W 001°54'611.7
2018-Jul-17 01:00N 55°55' W 001°47'611.6
2018-Jul-17 00:30N 55°51' W 001°39'1313.1
2018-Jul-16 23:30N 55°42' W 001°21'612.3
2018-Jul-16 23:00N 55°38' W 001°13'611.8
2018-Jul-16 22:30N 55°34' W 001°06'612.0
2018-Jul-16 21:58N 55°29' W 000°60'612.6
2018-Jul-16 21:30N 55°24' W 000°55'712.9
2018-Jul-16 21:00N 55°18' W 000°50'812.6
2018-Jul-16 20:20N 55°10' W 000°44'612.0
2018-Jul-16 19:52N 55°05' W 000°40'1711.3
2018-Jul-16 18:20N 54°49' W 000°26'411.1
2018-Jul-16 18:00N 54°46' W 000°23'611.0
2018-Jul-16 17:30N 54°41' W 000°19'611.2
2018-Jul-16 17:00N 54°36' W 000°17'611.1
2018-Jul-16 16:30N 54°30' W 000°15'611.5
2018-Jul-16 16:00N 54°25' W 000°13'611.9
2018-Jul-16 15:30N 54°19' W 000°10'612.0
2018-Jul-16 15:00N 54°14' W 000°05'612.2
2018-Jul-16 14:30N 54°08' W 000°00'712.5
2018-Jul-16 13:59N 54°05' E 000°10'714.1
2018-Jul-16 13:29N 54°06' E 000°21'611.5
2018-Jul-16 12:59N 54°08' E 000°31'1212.7
2018-Jul-16 12:01N 54°08' E 000°51'012.8
2018-Jul-16 12:00N 54°08' E 000°52'814.2
2018-Jul-16 11:28N 54°07' E 001°05'713.9
2018-Jul-16 11:00N 54°06' E 001°16'913.2
2018-Jul-16 10:18N 54°04' E 001°31'413.0
2018-Jul-16 10:01N 54°03' E 001°37'713.2
2018-Jul-16 09:27N 54°02' E 001°50'713.2
2018-Jul-16 08:54N 54°01' E 002°02'1512.3
2018-Jul-16 07:41N 53°52' E 002°23'213.7
2018-Jul-16 07:30N 53°50' E 002°25'713.9
2018-Jul-16 07:01N 53°44' E 002°31'714.2
2018-Jul-16 06:30N 53°38' E 002°38'714.5
2018-Jul-16 06:00N 53°32' E 002°43'714.5
2018-Jul-16 05:30N 53°25' E 002°46'815.7
2018-Jul-16 05:01N 53°17' E 002°44'815.9
2018-Jul-16 04:31N 53°09' E 002°44'815.9
2018-Jul-16 04:01N 53°01' E 002°41'816.2
2018-Jul-16 03:31N 52°53' E 002°41'815.8
2018-Jul-16 03:01N 52°45' E 002°41'815.3
2018-Jul-16 02:30N 52°38' E 002°42'714.4
2018-Jul-16 02:01N 52°31' E 002°46'714.2
2018-Jul-16 01:31N 52°26' E 002°54'713.7
2018-Jul-16 01:00N 52°21' E 003°03'713.4
2018-Jul-16 00:30N 52°17' E 003°12'713.5
2018-Jul-16 00:00N 52°13' E 003°20'713.7
2018-Jul-15 23:30N 52°09' E 003°30'713.9
2018-Jul-15 23:00N 52°06' E 003°39'714.3
2018-Jul-15 22:30N 52°03' E 003°50'4 8.9
2018-Jul-15 22:00N 52°01' E 003°56'611.4
2018-Jul-15 21:30N 51°59' E 004°05'613.0
2018-Jul-15 21:00N 51°55' E 004°14'5 9.1
2018-Jul-15 20:30N 51°54' E 004°21'3 6.8
2018-Jul-15 20:01N 51°54' E 004°26'1 2.9
2018-Jul-15 19:30N 51°54' E 004°28'1 1.0
2018-Jul-15 18:55N 51°54' E 004°29'0 0.0
2018-Jul-15 18:25N 51°54' E 004°29'0 0.0
2018-Jul-15 17:55N 51°54' E 004°29'0 0.0
2018-Jul-15 17:25N 51°54' E 004°29'0 0.0
2018-Jul-15 16:55N 51°54' E 004°29'0 0.0
2018-Jul-15 16:25N 51°54' E 004°29'0 0.0
2018-Jul-15 15:55N 51°54' E 004°29'0 0.0
2018-Jul-15 15:25N 51°54' E 004°29'0 0.0
2018-Jul-15 14:55N 51°54' E 004°29'0 0.0
2018-Jul-15 14:25N 51°54' E 004°29'0 0.0
2018-Jul-15 13:55N 51°54' E 004°29'0 0.0
2018-Jul-15 13:25N 51°54' E 004°29'0 0.0
2018-Jul-15 12:55N 51°54' E 004°29'0 0.0
2018-Jul-15 12:25N 51°54' E 004°29'0 0.0
2018-Jul-15 11:55N 51°54' E 004°29'0 0.0
2018-Jul-15 11:30N 51°54' E 004°29'0 0.0
2018-Jul-15 11:00N 51°54' E 004°29'0 0.0
2018-Jul-15 10:30N 51°54' E 004°29'0 0.0
2018-Jul-15 10:00N 51°54' E 004°29'0 0.0
2018-Jul-15 09:30N 51°54' E 004°29'0 0.0
2018-Jul-15 09:00N 51°54' E 004°29'0 0.0
2018-Jul-15 08:30N 51°54' E 004°29'0 0.0
2018-Jul-15 08:00N 51°54' E 004°29'0 0.0
2018-Jul-15 07:30N 51°54' E 004°29'0 0.0
2018-Jul-15 07:00N 51°54' E 004°29'0 0.0
2018-Jul-15 06:30N 51°54' E 004°29'0 0.0
2018-Jul-15 06:00N 51°54' E 004°29'0 0.0
2018-Jul-15 05:30N 51°54' E 004°29'0 0.0
2018-Jul-15 05:00N 51°54' E 004°29'1 1.2
2018-Jul-15 04:31N 51°54' E 004°28'4 8.2
2018-Jul-15 04:00N 51°54' E 004°22'5 9.6
2018-Jul-15 03:31N 51°55' E 004°14'612.3
2018-Jul-15 03:00N 51°59' E 004°06'612.9
2018-Jul-15 02:30N 52°00' E 003°56'612.3
2018-Jul-15 02:00N 51°59' E 003°46'4 7.8
2018-Jul-15 01:30N 51°58' E 003°40'5 9.3
2018-Jul-15 01:00N 51°56' E 003°33'5 9.1
2018-Jul-15 00:30N 51°55' E 003°26'5 9.3
2018-Jul-15 00:00N 51°54' E 003°19'5 9.4
2018-Jul-14 23:30N 51°53' E 003°11'510.3
2018-Jul-14 23:00N 51°51' E 003°03'611.4
2018-Jul-14 22:30N 51°49' E 002°55'510.9
2018-Jul-14 22:00N 51°48' E 002°46'8583.3
2018-Jul-14 22:00N 51°42' E 002°36'2 2.3 110 / 141019.210.8 17.015.318.0
2018-Jul-14 21:00N 51°42' E 002°32'510.7
2018-Jul-14 20:30N 51°39' E 002°26'511.0
2018-Jul-14 20:01N 51°35' E 002°19'611.0
2018-Jul-14 19:30N 51°31' E 002°14'611.9
2018-Jul-14 19:01N 51°26' E 002°08'612.2
2018-Jul-14 18:31N 51°20' E 002°07'611.4
2018-Jul-14 18:00N 51°15' E 002°04'611.8
2018-Jul-14 17:30N 51°12' E 001°56'612.1
2018-Jul-14 17:00N 51°08' E 001°48'612.7
2018-Jul-14 16:30N 51°04' E 001°40'713.5
2018-Jul-14 16:00N 50°59' E 001°33'612.9
2018-Jul-14 15:30N 50°54' E 001°27'612.0
2018-Jul-14 15:00N 50°49' E 001°23'510.7
2018-Jul-14 14:30N 50°43' E 001°21'10 9.9
2018-Jul-14 13:31N 50°35' E 001°13'510.5
2018-Jul-14 13:00N 50°32' E 001°06'510.4
2018-Jul-14 12:30N 50°28' E 001°00'510.4
2018-Jul-14 12:00N 50°26' E 000°52'510.6
2018-Jul-14 11:31N 50°25' E 000°45'610.9
2018-Jul-14 11:00N 50°23' E 000°36'9807.5
2018-Jul-14 11:00N 50°18' E 000°24'4 8.8 040 / 131021.010.8 18.014.617.0
2018-Jul-14 10:30N 50°21' E 000°28'611.8
2018-Jul-14 10:00N 50°20' E 000°19'612.4
2018-Jul-14 09:31N 50°18' E 000°10'714.3
2018-Jul-14 09:00N 50°16' W 000°01'714.0
2018-Jul-14 08:31N 50°13' W 000°11'713.6
2018-Jul-14 08:00N 50°09' W 000°20'713.0
2018-Jul-14 07:31N 50°05' W 000°28'612.9
2018-Jul-14 07:01N 50°02' W 000°36'612.5
2018-Jul-14 06:30N 49°59' W 000°44'611.8
2018-Jul-14 06:01N 49°57' W 000°53'611.4
2018-Jul-14 05:31N 49°57' W 001°02'510.7
2018-Jul-14 05:00N 49°57' W 001°11'612.2
2018-Jul-14 04:30N 49°57' W 001°20'611.4
2018-Jul-14 04:00N 49°57' W 001°29'610.9
2018-Jul-14 03:28N 49°57' W 001°38'510.7
2018-Jul-14 03:00N 49°57' W 001°46'510.0
2018-Jul-14 02:31N 49°58' W 001°53'4 8.8
2018-Jul-14 02:01N 50°02' W 001°55'714.0
2018-Jul-14 01:30N 50°09' W 001°54'510.8
2018-Jul-14 01:00N 50°14' W 001°59'913.7
2018-Jul-14 00:20N 50°23' W 001°59'413.2
2018-Jul-14 00:00N 50°27' W 001°59'612.9
2018-Jul-13 23:30N 50°29' W 001°49'613.0
2018-Jul-13 23:00N 50°29' W 001°39'612.1
2018-Jul-13 22:30N 50°29' W 001°30'611.0
2018-Jul-13 22:00N 50°29' W 001°21'4 8.5
2018-Jul-13 21:30N 50°29' W 001°14'4 7.9
2018-Jul-13 21:00N 50°28' W 001°08'4 7.5
2018-Jul-13 20:30N 50°29' W 001°02'4 8.4
2018-Jul-13 20:00N 50°32' W 000°59'5 9.6
2018-Jul-13 19:30N 50°37' W 000°59'611.1
2018-Jul-13 19:00N 50°43' W 000°59'815.5
2018-Jul-13 18:30N 50°46' W 001°10'611.2
2018-Jul-13 18:00N 50°49' W 001°18'5 9.9
2018-Jul-13 17:30N 50°52' W 001°23'2 3.9
2018-Jul-13 17:00N 50°54' W 001°25'0 0.0
2018-Jul-13 16:29N 50°54' W 001°25'0 0.0
2018-Jul-13 15:59N 50°54' W 001°25'0 0.0
2018-Jul-13 15:20N 50°54' W 001°25'0 0.0
2018-Jul-13 14:53N 50°54' W 001°25'0 0.0
2018-Jul-13 14:29N 50°54' W 001°25'0 0.0
2018-Jul-13 13:29N 50°54' W 001°25'0 0.0
2018-Jul-13 12:59N 50°54' W 001°25'0 0.0
2018-Jul-13 12:29N 50°54' W 001°25'0 0.0
2018-Jul-13 11:56N 50°54' W 001°25'0 0.0
2018-Jul-13 11:23N 50°54' W 001°25'0 0.0
2018-Jul-13 10:53N 50°54' W 001°25'0 0.0
2018-Jul-13 10:26N 50°54' W 001°25'0 0.0
2018-Jul-13 09:59N 50°54' W 001°25'0 0.0
2018-Jul-13 09:26N 50°54' W 001°25'0 0.0
2018-Jul-13 08:56N 50°54' W 001°25'0 0.0
2018-Jul-13 08:26N 50°54' W 001°25'0 0.0
2018-Jul-13 07:59N 50°54' W 001°25'0 0.0
2018-Jul-13 07:29N 50°54' W 001°25'0 0.0
2018-Jul-13 06:59N 50°54' W 001°25'0 0.0
2018-Jul-13 06:29N 50°54' W 001°25'0 0.0
2018-Jul-13 05:59N 50°54' W 001°25'0 0.0
2018-Jul-13 05:30N 50°54' W 001°25'1 2.6
2018-Jul-13 05:00N 50°53' W 001°24'5 9.3
2018-Jul-13 04:30N 50°50' W 001°19'4 8.1
2018-Jul-13 04:00N 50°46' W 001°15'816.9
2018-Jul-13 03:31N 50°44' W 001°03'713.2
2018-Jul-13 03:00N 50°39' W 000°55'510.9
2018-Jul-13 02:30N 50°36' W 000°48'714.9
2018-Jul-13 02:00N 50°33' W 000°37'815.2
2018-Jul-13 01:30N 50°32' W 000°25'816.5
2018-Jul-13 01:00N 50°32' W 000°12'816.5
2018-Jul-13 00:30N 50°32' E 000°00'816.2
2018-Jul-13 00:00N 50°33' E 000°13'815.7
2018-Jul-12 23:30N 50°36' E 000°25'815.3
2018-Jul-12 23:00N 50°39' E 000°36'714.5
2018-Jul-12 22:30N 50°42' E 000°46'714.3
2018-Jul-12 22:00N 50°46' E 000°55'815.9
2018-Jul-12 21:30N 50°50' E 001°06'917.1
2018-Jul-12 21:00N 50°55' E 001°18'918.3
2018-Jul-12 20:30N 51°02' E 001°27'1020.3
2018-Jul-12 20:00N 51°09' E 001°38'1019.8
2018-Jul-12 19:30N 51°17' E 001°47'1021.0
2018-Jul-12 19:01N 51°27' E 001°54'1020.5
2018-Jul-12 18:30N 51°34' E 002°06'1020.1
2018-Jul-12 18:00N 51°41' E 002°17'1019.6
2018-Jul-12 17:30N 51°49' E 002°28'918.9
2018-Jul-12 17:00N 51°57' E 002°34'918.3
2018-Jul-12 16:30N 52°06' E 002°37'917.9
2018-Jul-12 16:00N 52°15' E 002°37'917.5
2018-Jul-12 15:30N 52°24' E 002°36'917.1
2018-Jul-12 15:00N 52°32' E 002°36'816.9
2018-Jul-12 14:30N 52°41' E 002°37'816.8
2018-Jul-12 14:00N 52°49' E 002°37'916.9
2018-Jul-12 13:30N 52°58' E 002°38'917.0
2018-Jul-12 12:59N 53°06' E 002°39'817.4
2018-Jul-12 12:29N 53°14' E 002°44'918.0
2018-Jul-12 12:00N 53°23' E 002°49'1018.3
2018-Jul-12 11:28N 53°32' E 002°54'1018.8
2018-Jul-12 10:57N 53°41' E 003°01'918.9
2018-Jul-12 10:27N 53°49' E 003°08'818.7
2018-Jul-12 10:00N 53°57' E 003°13'1819.1
2018-Jul-12 09:02N 54°15' E 003°18'118.9
2018-Jul-12 08:59N 54°16' E 003°18'1818.9
2018-Jul-12 08:03N 54°34' E 003°23'218.7
2018-Jul-12 07:55N 54°36' E 003°23'818.8
2018-Jul-12 07:30N 54°44' E 003°26'1618.7
2018-Jul-12 06:40N 54°59' E 003°30'618.8
2018-Jul-12 06:20N 55°05' E 003°32'619.0
2018-Jul-12 05:59N 55°12' E 003°34'2118.9
2018-Jul-12 04:53N 55°33' E 003°39'818.9
2018-Jul-12 04:27N 55°41' E 003°41'1018.9
2018-Jul-12 03:56N 55°50' E 003°44'819.0
2018-Jul-12 03:30N 55°59' E 003°46'  
Track history (hours):
 
Tides and Currents Weather Stations Pressure Air Temp Water Temp Dewpoint Dewpoint Depression Visibility Wind Speed Wind Dir Waves Ship Positions

Queen Elizabeth

Last reported at 2018-Jul-22 03:00 UTC. Time now 2018-Jul-22 03:20 UTC.
Position N 54°48' W 005°16'.

Length 294 m; draft 8 m.

Type: Passenger vessel. MMSI: 310625000.

Date/timePositionNaut miles runAvg speedWind from/ knotsBaromVisibWave heightAir tempDewpointWater temp
2018-Jul-22 03:00N 54°48' W 005°16'5 9.2
2018-Jul-22 02:30N 54°52' W 005°20'5 9.1
2018-Jul-22 02:01N 54°56' W 005°24'4 8.7
2018-Jul-22 01:30N 54°60' W 005°28'4 8.4
2018-Jul-22 01:00N 55°04' W 005°32'4 8.8
2018-Jul-22 00:30N 55°08' W 005°34'36 9.9
2018-Jul-21 20:54N 55°37' W 004°60'410.0
2018-Jul-21 20:29N 55°41' W 004°59'612.6
2018-Jul-21 20:00N 55°47' W 004°58'613.0
2018-Jul-21 19:31N 55°54' W 004°56'612.1
2018-Jul-21 19:00N 55°58' W 004°48'2 3.1
2018-Jul-21 18:29N 55°57' W 004°46'0 0.0
2018-Jul-21 17:59N 55°57' W 004°46'0 0.0
2018-Jul-21 17:29N 55°57' W 004°46'0 0.0
2018-Jul-21 16:59N 55°57' W 004°46'0 0.0
2018-Jul-21 16:29N 55°57' W 004°46'0 0.0
2018-Jul-21 15:59N 55°57' W 004°46'0 0.0
2018-Jul-21 15:29N 55°57' W 004°46'0 0.0
2018-Jul-21 14:59N 55°57' W 004°46'0 0.0
2018-Jul-21 14:29N 55°57' W 004°46'0 0.0
2018-Jul-21 13:29N 55°57' W 004°46'0 0.0
2018-Jul-21 12:56N 55°57' W 004°46'0 0.0
2018-Jul-21 12:29N 55°57' W 004°46'0 0.0
2018-Jul-21 11:59N 55°57' W 004°46'0 0.0
2018-Jul-21 11:29N 55°57' W 004°46'0 0.0
2018-Jul-21 10:59N 55°57' W 004°46'0 0.0
2018-Jul-21 10:29N 55°57' W 004°46'0 0.0
2018-Jul-21 09:59N 55°57' W 004°46'0 0.0
2018-Jul-21 09:29N 55°57' W 004°46'0 0.0
2018-Jul-21 08:59N 55°57' W 004°46'0 0.0
2018-Jul-21 08:26N 55°57' W 004°46'0 0.0
2018-Jul-21 07:59N 55°57' W 004°46'0 0.0
2018-Jul-21 07:29N 55°57' W 004°46'0 0.0
2018-Jul-21 06:59N 55°57' W 004°46'0 0.4
2018-Jul-21 06:30N 55°58' W 004°46'2 4.0
2018-Jul-21 06:00N 55°58' W 004°49'611.2
2018-Jul-21 05:30N 55°54' W 004°56'816.9
2018-Jul-21 05:00N 55°45' W 004°58'5 9.3
2018-Jul-21 04:30N 55°41' W 004°59'815.2
2018-Jul-21 04:00N 55°33' W 004°60'915.2
2018-Jul-21 03:23N 55°24' W 005°02'715.8
2018-Jul-21 02:57N 55°20' W 005°11'916.1
2018-Jul-21 02:24N 55°15' W 005°25'717.2
2018-Jul-21 02:00N 55°13' W 005°36'817.3
2018-Jul-21 01:30N 55°11' W 005°51'917.6
2018-Jul-21 01:00N 55°17' W 006°02'816.6
2018-Jul-21 00:30N 55°22' W 006°13'918.0
2018-Jul-21 00:00N 55°24' W 006°29'918.1
2018-Jul-20 23:31N 55°26' W 006°44'917.5
2018-Jul-20 23:01N 55°28' W 006°59'8483.1
2018-Jul-20 23:00N 55°24' W 007°12'610.1 340 / 181014.510.8 14.010.217.0
2018-Jul-20 22:23N 55°29' W 007°18'1817.6
2018-Jul-20 21:20N 55°25' W 007°50'917.8
2018-Jul-20 20:50N 55°23' W 008°06'2716.4
2018-Jul-20 19:10N 55°06' W 008°43'317.5
2018-Jul-20 19:00N 55°03' W 008°45'1217.6
2018-Jul-20 18:19N 54°52' W 008°54'617.6
2018-Jul-20 17:59N 54°47' W 008°58'917.0
2018-Jul-20 17:26N 54°38' W 009°00'817.7
2018-Jul-20 17:00N 54°35' W 008°48'1017.0
2018-Jul-20 16:24N 54°35' W 008°30'3 8.1
2018-Jul-20 15:59N 54°38' W 008°26'0 0.0
2018-Jul-20 09:34N 54°38' W 008°26'0 0.0
2018-Jul-20 09:10N 54°38' W 008°26'0 0.0
2018-Jul-20 08:52N 54°38' W 008°26'0 0.0
2018-Jul-20 06:30N 54°38' W 008°26'1 1.9
2018-Jul-20 05:47N 54°36' W 008°27'3 9.5
2018-Jul-20 05:26N 54°35' W 008°32'510.6
2018-Jul-20 05:00N 54°34' W 008°40'510.3
2018-Jul-20 04:31N 54°35' W 008°48'12 9.2
2018-Jul-20 03:14N 54°44' W 009°01'311.3
2018-Jul-20 03:01N 54°46' W 009°00'3211.6
2018-Jul-20 00:12N 55°18' W 008°45'511.9
2018-Jul-19 23:48N 55°22' W 008°41'412.4
2018-Jul-19 23:27N 55°26' W 008°37'612.5
2018-Jul-19 22:59N 55°30' W 008°32'1312.0
2018-Jul-19 21:52N 55°42' W 008°20'511.1
2018-Jul-19 21:24N 55°47' W 008°16'7211.3
2018-Jul-19 15:00N 56°48' W 007°06'11111.2 200 / 241016.610.8 15.0 9.215.0
2018-Jul-19 05:08N 58°27' W 005°32'211.6
2018-Jul-19 05:00N 58°28' W 005°30'612.0
2018-Jul-19 04:30N 58°33' W 005°23'2113.7
2018-Jul-19 03:00N 58°42' W 004°48'3310.6 1018.010.8 13.0 9.115.0
2018-Jul-18 23:55N 58°44' W 003°45'511.7
2018-Jul-18 23:30N 58°44' W 003°36'612.0
2018-Jul-18 23:00N 58°44' W 003°25'20613009.2
2018-Jul-18 23:00N 58°42' E 003°12'198409.2 190 / 101019.610.8 13.0 9.112.0
2018-Jul-18 22:30N 58°44' W 003°09'816.9
2018-Jul-18 22:00N 58°39' W 002°56'917.7
2018-Jul-18 21:30N 58°31' W 002°47'60 2.9
2018-Jul-18 00:56N 57°43' W 001°39'818.2
2018-Jul-18 00:30N 57°36' W 001°34'917.3
2018-Jul-18 00:00N 57°27' W 001°33'917.6
2018-Jul-17 23:30N 57°18' W 001°34'918.1
2018-Jul-17 23:00N 57°09' W 001°35'151074.3
2018-Jul-17 23:00N 56°54' W 001°36'613.0 340 / 121013.710.8 14.012.215.0
2018-Jul-17 22:30N 57°00' W 001°37'1018.3
2018-Jul-17 21:58N 56°52' W 001°45'2219.1
2018-Jul-17 20:50N 56°32' W 002°02'718.7
2018-Jul-17 20:29N 56°26' W 002°08'918.2
2018-Jul-17 20:00N 56°20' W 002°18'918.4
2018-Jul-17 19:30N 56°14' W 002°31'918.6
2018-Jul-17 19:00N 56°09' W 002°45'816.9
2018-Jul-17 18:30N 56°04' W 002°57'611.4
2018-Jul-17 18:00N 56°01' W 003°06'2 0.2
2018-Jul-17 06:25N 56°01' W 003°09'0 0.0
2018-Jul-17 05:57N 56°01' W 003°09'1 2.8
2018-Jul-17 05:30N 56°01' W 003°07'611.7
2018-Jul-17 05:00N 56°04' W 002°59'5 9.1
2018-Jul-17 04:30N 56°06' W 002°51'611.4
2018-Jul-17 04:00N 56°07' W 002°41'612.5
2018-Jul-17 03:30N 56°08' W 002°30'612.8
2018-Jul-17 03:00N 56°08' W 002°19'611.4
2018-Jul-17 02:30N 56°07' W 002°08'611.6
2018-Jul-17 02:00N 56°03' W 002°01'611.6
2018-Jul-17 01:30N 55°59' W 001°54'611.7
2018-Jul-17 01:00N 55°55' W 001°47'611.6
2018-Jul-17 00:30N 55°51' W 001°39'1313.1
2018-Jul-16 23:30N 55°42' W 001°21'612.3
2018-Jul-16 23:00N 55°38' W 001°13'611.8
2018-Jul-16 22:30N 55°34' W 001°06'612.0
2018-Jul-16 21:58N 55°29' W 000°60'612.6
2018-Jul-16 21:30N 55°24' W 000°55'712.9
2018-Jul-16 21:00N 55°18' W 000°50'812.6
2018-Jul-16 20:20N 55°10' W 000°44'612.0
2018-Jul-16 19:52N 55°05' W 000°40'1711.3
2018-Jul-16 18:20N 54°49' W 000°26'411.1
2018-Jul-16 18:00N 54°46' W 000°23'611.0
2018-Jul-16 17:30N 54°41' W 000°19'611.2
2018-Jul-16 17:00N 54°36' W 000°17'611.1
2018-Jul-16 16:30N 54°30' W 000°15'611.5
2018-Jul-16 16:00N 54°25' W 000°13'611.9
2018-Jul-16 15:30N 54°19' W 000°10'612.0
2018-Jul-16 15:00N 54°14' W 000°05'612.2
2018-Jul-16 14:30N 54°08' W 000°00'712.5
2018-Jul-16 13:59N 54°05' E 000°10'714.1
2018-Jul-16 13:29N 54°06' E 000°21'611.5
2018-Jul-16 12:59N 54°08' E 000°31'1212.7
2018-Jul-16 12:01N 54°08' E 000°51'012.8
2018-Jul-16 12:00N 54°08' E 000°52'814.2
2018-Jul-16 11:28N 54°07' E 001°05'713.9
2018-Jul-16 11:00N 54°06' E 001°16'913.2
2018-Jul-16 10:18N 54°04' E 001°31'413.0
2018-Jul-16 10:01N 54°03' E 001°37'713.2
2018-Jul-16 09:27N 54°02' E 001°50'713.2
2018-Jul-16 08:54N 54°01' E 002°02'1512.3
2018-Jul-16 07:41N 53°52' E 002°23'213.7
2018-Jul-16 07:30N 53°50' E 002°25'713.9
2018-Jul-16 07:01N 53°44' E 002°31'714.2
2018-Jul-16 06:30N 53°38' E 002°38'714.5
2018-Jul-16 06:00N 53°32' E 002°43'714.5
2018-Jul-16 05:30N 53°25' E 002°46'815.7
2018-Jul-16 05:01N 53°17' E 002°44'815.9
2018-Jul-16 04:31N 53°09' E 002°44'815.9
2018-Jul-16 04:01N 53°01' E 002°41'816.2
2018-Jul-16 03:31N 52°53' E 002°41'815.8
2018-Jul-16 03:01N 52°45' E 002°41'815.3
2018-Jul-16 02:30N 52°38' E 002°42'714.4
2018-Jul-16 02:01N 52°31' E 002°46'714.2
2018-Jul-16 01:31N 52°26' E 002°54'713.7
2018-Jul-16 01:00N 52°21' E 003°03'713.4
2018-Jul-16 00:30N 52°17' E 003°12'713.5
2018-Jul-16 00:00N 52°13' E 003°20'713.7
2018-Jul-15 23:30N 52°09' E 003°30'713.9
2018-Jul-15 23:00N 52°06' E 003°39'714.3
2018-Jul-15 22:30N 52°03' E 003°50'4 8.9
2018-Jul-15 22:00N 52°01' E 003°56'611.4
2018-Jul-15 21:30N 51°59' E 004°05'613.0
2018-Jul-15 21:00N 51°55' E 004°14'5 9.1
2018-Jul-15 20:30N 51°54' E 004°21'3 6.8
2018-Jul-15 20:01N 51°54' E 004°26'1 2.9
2018-Jul-15 19:30N 51°54' E 004°28'1 1.0
2018-Jul-15 18:55N 51°54' E 004°29'0 0.0
2018-Jul-15 18:25N 51°54' E 004°29'0 0.0
2018-Jul-15 17:55N 51°54' E 004°29'0 0.0
2018-Jul-15 17:25N 51°54' E 004°29'0 0.0
2018-Jul-15 16:55N 51°54' E 004°29'0 0.0
2018-Jul-15 16:25N 51°54' E 004°29'0 0.0
2018-Jul-15 15:55N 51°54' E 004°29'0 0.0
2018-Jul-15 15:25N 51°54' E 004°29'0 0.0
2018-Jul-15 14:55N 51°54' E 004°29'0 0.0
2018-Jul-15 14:25N 51°54' E 004°29'0 0.0
2018-Jul-15 13:55N 51°54' E 004°29'0 0.0
2018-Jul-15 13:25N 51°54' E 004°29'0 0.0
2018-Jul-15 12:55N 51°54' E 004°29'0 0.0
2018-Jul-15 12:25N 51°54' E 004°29'0 0.0
2018-Jul-15 11:55N 51°54' E 004°29'0 0.0
2018-Jul-15 11:30N 51°54' E 004°29'0 0.0
2018-Jul-15 11:00N 51°54' E 004°29'0 0.0
2018-Jul-15 10:30N 51°54' E 004°29'0 0.0
2018-Jul-15 10:00N 51°54' E 004°29'0 0.0
2018-Jul-15 09:30N 51°54' E 004°29'0 0.0
2018-Jul-15 09:00N 51°54' E 004°29'0 0.0
2018-Jul-15 08:30N 51°54' E 004°29'0 0.0
2018-Jul-15 08:00N 51°54' E 004°29'0 0.0
2018-Jul-15 07:30N 51°54' E 004°29'0 0.0
2018-Jul-15 07:00N 51°54' E 004°29'0 0.0
2018-Jul-15 06:30N 51°54' E 004°29'0 0.0
2018-Jul-15 06:00N 51°54' E 004°29'0 0.0
2018-Jul-15 05:30N 51°54' E 004°29'0 0.0
2018-Jul-15 05:00N 51°54' E 004°29'1 1.2
2018-Jul-15 04:31N 51°54' E 004°28'4 8.2
2018-Jul-15 04:00N 51°54' E 004°22'5 9.6
2018-Jul-15 03:31N 51°55' E 004°14'612.3
2018-Jul-15 03:00N 51°59' E 004°06'612.9
2018-Jul-15 02:30N 52°00' E 003°56'612.3
2018-Jul-15 02:00N 51°59' E 003°46'4 7.8
2018-Jul-15 01:30N 51°58' E 003°40'5 9.3
2018-Jul-15 01:00N 51°56' E 003°33'5 9.1
2018-Jul-15 00:30N 51°55' E 003°26'5 9.3
2018-Jul-15 00:00N 51°54' E 003°19'5 9.4
2018-Jul-14 23:30N 51°53' E 003°11'510.3
2018-Jul-14 23:00N 51°51' E 003°03'611.4
2018-Jul-14 22:30N 51°49' E 002°55'510.9
2018-Jul-14 22:00N 51°48' E 002°46'8583.3
2018-Jul-14 22:00N 51°42' E 002°36'2 2.3 110 / 141019.210.8 17.015.318.0
2018-Jul-14 21:00N 51°42' E 002°32'510.7
2018-Jul-14 20:30N 51°39' E 002°26'511.0
2018-Jul-14 20:01N 51°35' E 002°19'611.0
2018-Jul-14 19:30N 51°31' E 002°14'611.9
2018-Jul-14 19:01N 51°26' E 002°08'612.2
2018-Jul-14 18:31N 51°20' E 002°07'611.4
2018-Jul-14 18:00N 51°15' E 002°04'611.8
2018-Jul-14 17:30N 51°12' E 001°56'612.1
2018-Jul-14 17:00N 51°08' E 001°48'612.7
2018-Jul-14 16:30N 51°04' E 001°40'713.5
2018-Jul-14 16:00N 50°59' E 001°33'612.9
2018-Jul-14 15:30N 50°54' E 001°27'612.0
2018-Jul-14 15:00N 50°49' E 001°23'510.7
2018-Jul-14 14:30N 50°43' E 001°21'10 9.9
2018-Jul-14 13:31N 50°35' E 001°13'510.5
2018-Jul-14 13:00N 50°32' E 001°06'510.4
2018-Jul-14 12:30N 50°28' E 001°00'510.4
2018-Jul-14 12:00N 50°26' E 000°52'510.6
2018-Jul-14 11:31N 50°25' E 000°45'610.9
2018-Jul-14 11:00N 50°23' E 000°36'9807.5
2018-Jul-14 11:00N 50°18' E 000°24'4 8.8 040 / 131021.010.8 18.014.617.0
2018-Jul-14 10:30N 50°21' E 000°28'611.8
2018-Jul-14 10:00N 50°20' E 000°19'612.4
2018-Jul-14 09:31N 50°18' E 000°10'714.3
2018-Jul-14 09:00N 50°16' W 000°01'714.0
2018-Jul-14 08:31N 50°13' W 000°11'713.6
2018-Jul-14 08:00N 50°09' W 000°20'713.0
2018-Jul-14 07:31N 50°05' W 000°28'612.9
2018-Jul-14 07:01N 50°02' W 000°36'612.5
2018-Jul-14 06:30N 49°59' W 000°44'611.8
2018-Jul-14 06:01N 49°57' W 000°53'611.4
2018-Jul-14 05:31N 49°57' W 001°02'510.7
2018-Jul-14 05:00N 49°57' W 001°11'612.2
2018-Jul-14 04:30N 49°57' W 001°20'611.4
2018-Jul-14 04:00N 49°57' W 001°29'610.9
2018-Jul-14 03:28N 49°57' W 001°38'510.7
2018-Jul-14 03:00N 49°57' W 001°46'510.0
2018-Jul-14 02:31N 49°58' W 001°53'4 8.8
2018-Jul-14 02:01N 50°02' W 001°55'714.0
2018-Jul-14 01:30N 50°09' W 001°54'510.8
2018-Jul-14 01:00N 50°14' W 001°59'913.7
2018-Jul-14 00:20N 50°23' W 001°59'413.2
2018-Jul-14 00:00N 50°27' W 001°59'612.9
2018-Jul-13 23:30N 50°29' W 001°49'613.0
2018-Jul-13 23:00N 50°29' W 001°39'612.1
2018-Jul-13 22:30N 50°29' W 001°30'611.0
2018-Jul-13 22:00N 50°29' W 001°21'4 8.5
2018-Jul-13 21:30N 50°29' W 001°14'4 7.9
2018-Jul-13 21:00N 50°28' W 001°08'4 7.5
2018-Jul-13 20:30N 50°29' W 001°02'4 8.4
2018-Jul-13 20:00N 50°32' W 000°59'5 9.6
2018-Jul-13 19:30N 50°37' W 000°59'611.1
2018-Jul-13 19:00N 50°43' W 000°59'815.5
2018-Jul-13 18:30N 50°46' W 001°10'611.2
2018-Jul-13 18:00N 50°49' W 001°18'5 9.9
2018-Jul-13 17:30N 50°52' W 001°23'2 3.9
2018-Jul-13 17:00N 50°54' W 001°25'0 0.0
2018-Jul-13 16:29N 50°54' W 001°25'0 0.0
2018-Jul-13 15:59N 50°54' W 001°25'0 0.0
2018-Jul-13 15:20N 50°54' W 001°25'0 0.0
2018-Jul-13 14:53N 50°54' W 001°25'0 0.0
2018-Jul-13 14:29N 50°54' W 001°25'0 0.0
2018-Jul-13 13:29N 50°54' W 001°25'0 0.0
2018-Jul-13 12:59N 50°54' W 001°25'0 0.0
2018-Jul-13 12:29N 50°54' W 001°25'0 0.0
2018-Jul-13 11:56N 50°54' W 001°25'0 0.0
2018-Jul-13 11:23N 50°54' W 001°25'0 0.0
2018-Jul-13 10:53N 50°54' W 001°25'0 0.0
2018-Jul-13 10:26N 50°54' W 001°25'0 0.0
2018-Jul-13 09:59N 50°54' W 001°25'0 0.0
2018-Jul-13 09:26N 50°54' W 001°25'0 0.0
2018-Jul-13 08:56N 50°54' W 001°25'0 0.0
2018-Jul-13 08:26N 50°54' W 001°25'0 0.0
2018-Jul-13 07:59N 50°54' W 001°25'0 0.0
2018-Jul-13 07:29N 50°54' W 001°25'0 0.0
2018-Jul-13 06:59N 50°54' W 001°25'0 0.0
2018-Jul-13 06:29N 50°54' W 001°25'0 0.0
2018-Jul-13 05:59N 50°54' W 001°25'0 0.0
2018-Jul-13 05:30N 50°54' W 001°25'1 2.6
2018-Jul-13 05:00N 50°53' W 001°24'5 9.3
2018-Jul-13 04:30N 50°50' W 001°19'4 8.1
2018-Jul-13 04:00N 50°46' W 001°15'816.9
2018-Jul-13 03:31N 50°44' W 001°03'713.2
2018-Jul-13 03:00N 50°39' W 000°55'510.9
2018-Jul-13 02:30N 50°36' W 000°48'714.9
2018-Jul-13 02:00N 50°33' W 000°37'815.2
2018-Jul-13 01:30N 50°32' W 000°25'816.5
2018-Jul-13 01:00N 50°32' W 000°12'816.5
2018-Jul-13 00:30N 50°32' E 000°00'816.2
2018-Jul-13 00:00N 50°33' E 000°13'815.7
2018-Jul-12 23:30N 50°36' E 000°25'815.3
2018-Jul-12 23:00N 50°39' E 000°36'714.5
2018-Jul-12 22:30N 50°42' E 000°46'714.3
2018-Jul-12 22:00N 50°46' E 000°55'815.9
2018-Jul-12 21:30N 50°50' E 001°06'917.1
2018-Jul-12 21:00N 50°55' E 001°18'918.3
2018-Jul-12 20:30N 51°02' E 001°27'1020.3
2018-Jul-12 20:00N 51°09' E 001°38'1019.8
2018-Jul-12 19:30N 51°17' E 001°47'1021.0
2018-Jul-12 19:01N 51°27' E 001°54'1020.5
2018-Jul-12 18:30N 51°34' E 002°06'1020.1
2018-Jul-12 18:00N 51°41' E 002°17'1019.6
2018-Jul-12 17:30N 51°49' E 002°28'918.9
2018-Jul-12 17:00N 51°57' E 002°34'918.3
2018-Jul-12 16:30N 52°06' E 002°37'917.9
2018-Jul-12 16:00N 52°15' E 002°37'917.5
2018-Jul-12 15:30N 52°24' E 002°36'917.1
2018-Jul-12 15:00N 52°32' E 002°36'816.9
2018-Jul-12 14:30N 52°41' E 002°37'816.8
2018-Jul-12 14:00N 52°49' E 002°37'916.9
2018-Jul-12 13:30N 52°58' E 002°38'917.0
2018-Jul-12 12:59N 53°06' E 002°39'817.4
2018-Jul-12 12:29N 53°14' E 002°44'918.0
2018-Jul-12 12:00N 53°23' E 002°49'1018.3
2018-Jul-12 11:28N 53°32' E 002°54'1018.8
2018-Jul-12 10:57N 53°41' E 003°01'918.9
2018-Jul-12 10:27N 53°49' E 003°08'818.7
2018-Jul-12 10:00N 53°57' E 003°13'1819.1
2018-Jul-12 09:02N 54°15' E 003°18'118.9
2018-Jul-12 08:59N 54°16' E 003°18'1818.9
2018-Jul-12 08:03N 54°34' E 003°23'218.7
2018-Jul-12 07:55N 54°36' E 003°23'818.8
2018-Jul-12 07:30N 54°44' E 003°26'1618.7
2018-Jul-12 06:40N 54°59' E 003°30'618.8
2018-Jul-12 06:20N 55°05' E 003°32'619.0
2018-Jul-12 05:59N 55°12' E 003°34'2118.9
2018-Jul-12 04:53N 55°33' E 003°39'818.9
2018-Jul-12 04:27N 55°41' E 003°41'1018.9
2018-Jul-12 03:56N 55°50' E 003°44'819.0
2018-Jul-12 03:30N 55°59' E 003°46'  

Dump ship's entire track history